Weather at Greater Moncton Roméo LeBlanc International Airport

Public forecast

Using degrees Celsius for public forecast. Weather courtesy of forecast.io.

Current aviation weather report (METAR) for Greater Moncton Roméo LeBlanc International Airport

2024/06/18 11:00 (retrieved 12 minutes ago)

CYQM 181100Z 24009KT 15SM BKN040 BKN260 16/12 A3017 RMK SC6CI1 SLP219

Aviation forecast (TAF) for Greater Moncton Roméo LeBlanc International Airport

2024/06/18 06:46 (retrieved 4 hours ago)

TAF CYQM 180541Z 1806/1906 21010KT P6SM FEW015 TEMPO 1808/1812 BKN015 FM181400 22012KT P6SM SCT040 FM190000 21008KT P6SM SKC RMK NXT FCST BY 181200Z